Time;durP1;ratioP1;P1;durP2;ratioP2;P2;SDS_P1;SDS_P2;PMS_P1;PMS_P2;Temp;Humidity;BMP_temperature;BMP_pressure;BME280_temperature;BME280_humidity;BME280_pressure;Samples;Min_cycle;Max_cycle;Signal;HPM_P1;HPM_P2
2021/03/01 00:00:27;;;;;;;17.17;11.55;;;22.40;46.30;;;;;;5025795;28;45558;-59
2021/03/01 00:02:53;;;;;;;14.52;11.35;;;22.40;46.30;;;;;;5024570;28;45394;-59
2021/03/01 00:05:20;;;;;;;17.75;11.32;;;22.30;46.30;;;;;;5023812;28;45333;-59
2021/03/01 00:07:45;;;;;;;17.20;11.10;;;22.30;46.30;;;;;;5026795;28;45330;-59
2021/03/01 00:10:11;;;;;;;18.95;11.57;;;22.30;46.30;;;;;;5026515;28;45502;-59
2021/03/01 00:12:37;;;;;;;15.75;11.05;;;22.30;46.30;;;;;;5022830;28;45400;-59
2021/03/01 00:15:04;;;;;;;17.48;11.93;;;22.30;46.20;;;;;;5005777;28;45335;-60
2021/03/01 00:17:30;;;;;;;15.35;10.57;;;22.30;46.20;;;;;;5009287;28;45351;-59
2021/03/01 00:19:56;;;;;;;18.98;12.07;;;22.30;46.20;;;;;;5023013;28;45705;-59
2021/03/01 00:22:22;;;;;;;15.32;10.93;;;22.30;46.20;;;;;;5006105;28;45204;-59
2021/03/01 00:24:47;;;;;;;14.95;10.73;;;22.30;46.20;;;;;;5006709;28;45685;-60
2021/03/01 00:27:13;;;;;;;16.73;11.90;;;22.30;46.20;;;;;;4990857;28;45367;-59
2021/03/01 00:29:39;;;;;;;14.82;11.10;;;22.30;46.20;;;;;;4990509;28;45329;-59
2021/03/01 00:32:05;;;;;;;15.32;10.43;;;22.20;46.10;;;;;;4990553;28;46062;-59
2021/03/01 00:34:30;;;;;;;15.57;10.25;;;22.20;46.10;;;;;;5002420;28;45698;-59
2021/03/01 00:36:56;;;;;;;15.80;11.45;;;22.20;46.10;;;;;;5010061;28;45375;-59
2021/03/01 00:39:22;;;;;;;15.00;10.65;;;22.30;46.10;;;;;;5010793;28;45325;-59
2021/03/01 00:41:47;;;;;;;14.88;10.70;;;22.20;46.10;;;;;;5009974;28;45838;-59
2021/03/01 00:44:13;;;;;;;16.65;11.13;;;22.20;46.10;;;;;;5009888;28;45463;-59
2021/03/01 00:46:39;;;;;;;15.15;10.23;;;22.20;46.10;;;;;;5010031;28;45373;-59
2021/03/01 00:49:04;;;;;;;14.68;9.75;;;22.20;46.10;;;;;;5026988;28;45160;-60
2021/03/01 00:51:30;;;;;;;13.55;10.45;;;22.20;46.00;;;;;;5009697;28;46183;-59
2021/03/01 00:53:56;;;;;;;14.60;10.32;;;22.20;46.10;;;;;;5009870;28;45229;-59
2021/03/01 00:56:21;;;;;;;16.83;10.65;;;22.10;46.00;;;;;;5009928;28;45204;-59
2021/03/01 00:58:47;;;;;;;14.82;9.98;;;22.10;46.00;;;;;;5010583;28;45198;-59
2021/03/01 01:01:13;;;;;;;15.60;10.77;;;22.10;46.00;;;;;;5009700;28;45986;-59
2021/03/01 01:03:38;;;;;;;15.13;10.32;;;22.10;46.00;;;;;;5009948;28;45439;-59
2021/03/01 01:06:04;;;;;;;16.73;11.40;;;22.10;46.00;;;;;;5026581;28;45359;-59
2021/03/01 01:08:30;;;;;;;14.20;10.02;;;22.10;46.00;;;;;;5005974;28;45499;-59
2021/03/01 01:10:56;;;;;;;15.07;10.40;;;22.10;46.00;;;;;;5006102;28;45430;-59
2021/03/01 01:13:22;;;;;;;15.25;10.57;;;22.10;46.00;;;;;;5015637;28;46054;-59
2021/03/01 01:15:47;;;;;;;14.02;9.82;;;22.10;46.00;;;;;;5026116;28;45372;-59
2021/03/01 01:18:13;;;;;;;16.38;10.40;;;22.10;46.00;;;;;;5026287;28;45502;-59
2021/03/01 01:20:39;;;;;;;13.32;8.90;;;22.10;46.00;;;;;;5024356;28;45948;-60
2021/03/01 01:23:04;;;;;;;15.18;9.90;;;22.10;46.00;;;;;;5006382;28;45211;-59
2021/03/01 01:25:30;;;;;;;13.07;9.00;;;22.10;46.00;;;;;;4989337;28;45267;-59
2021/03/01 01:27:56;;;;;;;13.00;9.93;;;22.10;46.00;;;;;;5026217;28;45542;-59
2021/03/01 01:30:23;;;;;;;15.25;9.63;;;22.00;45.90;;;;;;5016614;28;45288;-59
2021/03/01 01:32:49;;;;;;;14.57;10.10;;;22.00;46.00;;;;;;5009042;28;45277;-60
2021/03/01 01:35:15;;;;;;;13.10;9.85;;;22.00;46.00;;;;;;5019794;28;45352;-59
2021/03/01 01:37:41;;;;;;;15.07;10.80;;;22.00;45.90;;;;;;5013206;28;45428;-59
2021/03/01 01:40:08;;;;;;;13.98;10.02;;;22.00;45.90;;;;;;5028922;28;46140;-59
2021/03/01 01:42:34;;;;;;;15.32;10.23;;;22.00;45.90;;;;;;5028468;28;45515;-59
2021/03/01 01:45:00;;;;;;;14.43;9.48;;;22.00;45.90;;;;;;5029271;28;45380;-59
2021/03/01 01:47:26;;;;;;;14.13;9.27;;;22.00;45.90;;;;;;5013863;28;45239;-59
2021/03/01 01:49:51;;;;;;;13.85;9.70;;;22.00;45.90;;;;;;4993733;28;46115;-59
2021/03/01 01:52:17;;;;;;;13.68;9.52;;;22.00;45.90;;;;;;5028966;28;45289;-59
2021/03/01 01:54:43;;;;;;;14.07;9.38;;;22.00;45.90;;;;;;5021675;28;45303;-59
2021/03/01 01:57:09;;;;;;;12.57;8.90;;;22.00;45.90;;;;;;5009529;28;45423;-59
2021/03/01 01:59:35;;;;;;;13.68;10.23;;;22.00;45.90;;;;;;5008640;28;45389;-59
2021/03/01 02:02:01;;;;;;;13.30;8.98;;;21.90;45.80;;;;;;5009124;28;45356;-59
2021/03/01 02:04:28;;;;;;;11.65;9.25;;;21.90;45.90;;;;;;5042803;28;46555;-59
2021/03/01 02:07:17;;;;;;;11.95;8.52;;;22.00;45.90;;;;;;5012888;28;45324;-63
2021/03/01 02:10:04;;;;;;;12.18;8.82;;;21.90;45.80;;;;;;5029890;28;45253;-59
2021/03/01 02:12:41;;;;;;;14.95;9.00;;;21.90;45.80;;;;;;5027185;28;45255;-59
2021/03/01 02:15:33;;;;;;;13.93;9.23;;;21.90;45.80;;;;;;5010509;28;45357;-59
2021/03/01 02:17:58;;;;;;;14.18;9.43;;;21.90;45.80;;;;;;5025527;28;45388;-59
2021/03/01 02:20:24;;;;;;;13.80;9.25;;;21.90;45.80;;;;;;5011779;28;46084;-59
2021/03/01 02:22:50;;;;;;;12.55;9.55;;;21.90;45.80;;;;;;5011983;28;45540;-59
2021/03/01 02:25:17;;;;;;;11.88;8.40;;;21.90;45.80;;;;;;5012605;28;45419;-59
2021/03/01 02:27:50;;;;;;;12.55;9.50;;;21.90;45.80;;;;;;5028940;28;45319;-59
2021/03/01 02:30:24;;;;;;;12.57;9.15;;;21.90;45.80;;;;;;5028092;28;46104;-59
2021/03/01 02:32:52;;;;;;;12.13;8.60;;;21.90;45.80;;;;;;5028456;28;45340;-59
2021/03/01 02:35:18;;;;;;;13.05;8.70;;;21.90;45.80;;;;;;5012558;28;45348;-59
2021/03/01 02:37:44;;;;;;;11.70;8.40;;;21.90;46.40;;;;;;5011295;28;45272;-59
2021/03/01 02:40:10;;;;;;;12.23;8.40;;;21.90;45.80;;;;;;5011997;28;45348;-59
2021/03/01 02:42:37;;;;;;;11.05;7.97;;;21.80;45.80;;;;;;5028434;28;45325;-59
2021/03/01 02:45:03;;;;;;;12.50;8.68;;;21.80;45.80;;;;;;5012015;28;45326;-59
2021/03/01 02:47:29;;;;;;;11.70;8.60;;;21.80;45.70;;;;;;5012097;28;45444;-59
2021/03/01 02:49:56;;;;;;;12.38;8.90;;;21.80;45.70;;;;;;5011606;28;46021;-59
2021/03/01 02:52:22;;;;;;;11.60;8.38;;;21.80;45.70;;;;;;5028007;28;45429;-59
2021/03/01 02:54:47;;;;;;;11.30;7.60;;;21.80;45.70;;;;;;5028312;28;45523;-59
2021/03/01 02:57:13;;;;;;;10.63;7.90;;;21.80;45.80;;;;;;5012080;28;45416;-62
2021/03/01 02:59:39;;;;;;;12.40;8.38;;;21.80;45.70;;;;;;5011459;28;45342;-59
2021/03/01 03:02:05;;;;;;;11.10;8.00;;;21.80;45.70;;;;;;5011432;28;45277;-58
2021/03/01 03:04:31;;;;;;;12.35;8.18;;;21.80;45.70;;;;;;5010359;28;45332;-59
2021/03/01 03:06:57;;;;;;;12.07;7.75;;;21.80;45.70;;;;;;5012055;28;45523;-59
2021/03/01 03:09:22;;;;;;;11.82;8.27;;;21.80;45.80;;;;;;5010757;28;45362;-59
2021/03/01 03:11:48;;;;;;;13.38;8.73;;;21.90;46.00;;;;;;5027725;28;45345;-59
2021/03/01 03:14:16;;;;;;;11.32;8.10;;;21.90;45.80;;;;;;5011089;28;45401;-59
2021/03/01 03:16:42;;;;;;;11.10;8.25;;;22.00;45.60;;;;;;5013441;28;45482;-59
2021/03/01 03:19:08;;;;;;;10.57;7.70;;;22.00;45.50;;;;;;5027607;28;45432;-59
2021/03/01 03:21:34;;;;;;;9.85;7.43;;;22.10;45.30;;;;;;5026763;28;45300;-59
2021/03/01 03:24:01;;;;;;;11.90;8.23;;;22.10;45.20;;;;;;5027890;28;45308;-59
2021/03/01 03:26:27;;;;;;;9.52;6.75;;;22.10;45.10;;;;;;5027490;28;45380;-59
2021/03/01 03:28:52;;;;;;;10.13;7.40;;;22.10;45.00;;;;;;5027313;28;46071;-59
2021/03/01 03:31:18;;;;;;;10.18;7.38;;;22.10;44.90;;;;;;5024045;28;45442;-59
2021/03/01 03:33:44;;;;;;;9.43;6.85;;;22.10;44.80;;;;;;5024210;28;45324;-59
2021/03/01 03:36:10;;;;;;;10.85;7.35;;;22.10;44.80;;;;;;5026342;28;45630;-59
2021/03/01 03:38:43;;;;;;;10.90;7.80;;;22.10;44.80;;;;;;5007218;28;45363;-59
2021/03/01 03:41:11;;;;;;;11.32;7.90;;;22.10;44.60;;;;;;5008803;28;45413;-59
2021/03/01 03:43:36;;;;;;;10.63;7.25;;;22.10;44.50;;;;;;5025302;28;45327;-59
2021/03/01 03:46:02;;;;;;;10.32;6.60;;;22.10;44.70;;;;;;5023502;28;45553;-59
2021/03/01 03:48:28;;;;;;;9.65;7.03;;;22.10;44.70;;;;;;5007422;28;46336;-59
2021/03/01 03:50:54;;;;;;;11.52;7.35;;;22.20;44.70;;;;;;5007111;28;45310;-59
2021/03/01 03:53:20;;;;;;;10.68;6.15;;;22.30;44.70;;;;;;5007439;28;45309;-59
2021/03/01 03:55:46;;;;;;;10.32;6.88;;;22.30;44.60;;;;;;5007875;28;45301;-59
2021/03/01 03:58:14;;;;;;;9.63;7.05;;;22.30;44.50;;;;;;5007200;28;46030;-60
2021/03/01 04:00:39;;;;;;;9.02;6.80;;;22.40;44.40;;;;;;5007296;28;45345;-59
2021/03/01 04:03:07;;;;;;;9.75;6.65;;;22.40;44.40;;;;;;5007296;28;45393;-59
2021/03/01 04:05:33;;;;;;;9.30;6.65;;;22.40;44.40;;;;;;5020413;28;46720;-59
2021/03/01 04:07:58;;;;;;;9.70;6.60;;;22.40;44.30;;;;;;5010395;28;46434;-59
2021/03/01 04:10:24;;;;;;;9.48;6.88;;;22.40;44.20;;;;;;5006733;28;45308;-59
2021/03/01 04:12:52;;;;;;;8.60;6.28;;;22.50;44.10;;;;;;5011721;28;45328;-59
2021/03/01 04:15:18;;;;;;;8.75;6.47;;;22.50;44.10;;;;;;5027158;28;45622;-59
2021/03/01 04:17:44;;;;;;;8.00;5.95;;;22.50;44.00;;;;;;5015025;28;45357;-59
2021/03/01 04:20:10;;;;;;;10.13;5.60;;;22.60;44.10;;;;;;4990275;28;45365;-59
2021/03/01 04:22:37;;;;;;;7.85;6.00;;;22.60;44.00;;;;;;4990375;28;45358;-59
2021/03/01 04:25:03;;;;;;;8.73;5.90;;;22.60;44.00;;;;;;5017703;28;45442;-59
2021/03/01 04:27:29;;;;;;;8.85;5.82;;;22.60;43.90;;;;;;5025866;28;46382;-60
2021/03/01 04:29:55;;;;;;;9.63;6.90;;;22.60;43.90;;;;;;5026126;28;45290;-59
2021/03/01 04:32:20;;;;;;;10.25;6.93;;;22.60;43.80;;;;;;5026976;28;45351;-59
2021/03/01 04:34:46;;;;;;;8.35;6.00;;;22.70;43.90;;;;;;5025352;28;45562;-59
2021/03/01 04:37:12;;;;;;;7.88;5.63;;;22.70;43.90;;;;;;5010263;28;45243;-59
2021/03/01 04:39:37;;;;;;;7.75;5.65;;;22.70;43.90;;;;;;5009711;28;45450;-59
2021/03/01 04:42:03;;;;;;;8.23;5.82;;;22.70;43.80;;;;;;5026165;28;45433;-59
2021/03/01 04:44:29;;;;;;;7.97;5.20;;;22.70;43.80;;;;;;5019493;28;45438;-60
2021/03/01 04:46:55;;;;;;;9.20;6.38;;;22.80;43.80;;;;;;5015726;28;45370;-59
2021/03/01 04:49:23;;;;;;;7.57;5.57;;;22.70;43.80;;;;;;5026685;28;45378;-59
2021/03/01 04:51:49;;;;;;;9.98;6.75;;;22.80;43.80;;;;;;4972778;28;45522;-59
2021/03/01 04:54:15;;;;;;;9.95;7.00;;;22.80;43.80;;;;;;4953828;28;45394;-59
2021/03/01 04:56:42;;;;;;;7.97;5.60;;;22.80;43.80;;;;;;4953436;28;46123;-60
2021/03/01 04:59:08;;;;;;;8.75;6.00;;;22.80;43.70;;;;;;4953467;28;45416;-59
2021/03/01 05:01:34;;;;;;;7.15;5.22;;;22.80;43.70;;;;;;4963080;28;45489;-60
2021/03/01 05:04:00;;;;;;;7.32;5.53;;;22.80;43.70;;;;;;4973573;28;45530;-61
2021/03/01 05:06:25;;;;;;;9.45;6.18;;;22.80;43.70;;;;;;4992357;28;45433;-59
2021/03/01 05:08:51;;;;;;;7.68;5.40;;;22.80;43.60;;;;;;4992143;28;45448;-59
2021/03/01 05:11:36;;;;;;;8.88;5.72;;;22.80;43.60;;;;;;4992251;28;45340;-60
2021/03/01 05:14:02;;;;;;;;;;;22.90;44.10;;;;;;4992894;28;45348;-60
2021/03/01 05:16:28;;;;;;;7.78;5.32;;;22.80;43.60;;;;;;4990895;28;45701;-59
2021/03/01 05:18:54;;;;;;;6.20;4.75;;;22.80;43.60;;;;;;4956430;28;45297;-60
2021/03/01 05:21:20;;;;;;;9.73;5.20;;;22.90;43.60;;;;;;4962375;28;45341;-60
2021/03/01 05:23:45;;;;;;;8.50;5.32;;;22.90;43.60;;;;;;5025209;28;45280;-59
2021/03/01 05:26:12;;;;;;;7.07;5.32;;;22.90;43.50;;;;;;5016764;28;46803;-60
2021/03/01 05:28:38;;;;;;;6.70;4.85;;;22.90;43.50;;;;;;4993485;28;45269;-59
2021/03/01 05:31:04;;;;;;;7.90;5.65;;;22.90;43.50;;;;;;4992993;28;45365;-59
2021/03/01 05:33:29;;;;;;;7.63;4.70;;;22.90;43.40;;;;;;5010165;28;45407;-59
2021/03/01 05:35:55;;;;;;;9.05;5.03;;;22.90;43.50;;;;;;5009357;28;45361;-60
2021/03/01 05:38:21;;;;;;;7.28;4.97;;;22.90;43.40;;;;;;5009747;28;45281;-60
2021/03/01 05:40:47;;;;;;;7.18;4.60;;;22.90;43.40;;;;;;5009637;28;45616;-59
2021/03/01 05:43:13;;;;;;;8.45;5.30;;;22.90;43.30;;;;;;5009615;28;45416;-60
2021/03/01 05:45:39;;;;;;;7.18;4.82;;;23.00;43.30;;;;;;5009150;28;45536;-59
2021/03/01 05:48:07;;;;;;;7.57;4.90;;;23.00;43.30;;;;;;5008584;28;45421;-60
2021/03/01 05:50:33;;;;;;;7.65;5.25;;;23.00;43.40;;;;;;5009422;28;45281;-59
2021/03/01 05:52:58;;;;;;;7.60;5.32;;;23.00;43.40;;;;;;5009703;28;45444;-59
2021/03/01 05:55:24;;;;;;;7.93;5.47;;;23.00;43.30;;;;;;5009395;28;45375;-59
2021/03/01 05:57:50;;;;;;;7.20;5.32;;;23.00;43.30;;;;;;5009143;28;45348;-60
2021/03/01 06:00:16;;;;;;;7.35;5.35;;;23.00;43.30;;;;;;5009908;28;45509;-60
2021/03/01 06:02:41;;;;;;;7.65;5.18;;;23.00;43.20;;;;;;5028911;28;45569;-59
2021/03/01 06:05:08;;;;;;;6.65;4.65;;;23.00;43.30;;;;;;5024096;28;45503;-59
2021/03/01 06:07:34;;;;;;;6.15;4.13;;;23.00;43.20;;;;;;5028637;28;45360;-59
2021/03/01 06:09:59;;;;;;;7.50;5.53;;;23.00;43.20;;;;;;5005050;28;45397;-60
2021/03/01 06:12:25;;;;;;;6.60;5.03;;;23.00;43.10;;;;;;5019061;28;45161;-59
2021/03/01 06:14:51;;;;;;;7.00;4.97;;;23.00;43.10;;;;;;5028468;28;46302;-59
2021/03/01 06:17:17;;;;;;;8.85;5.30;;;23.10;43.20;;;;;;5020355;28;45362;-60
2021/03/01 06:19:47;;;;;;;7.45;5.25;;;23.10;43.20;;;;;;5008264;28;45960;-59
2021/03/01 06:22:13;;;;;;;5.88;4.57;;;23.10;43.30;;;;;;5009875;28;46095;-59
2021/03/01 06:24:39;;;;;;;8.48;4.72;;;23.10;43.30;;;;;;5026737;28;45525;-59
2021/03/01 06:27:06;;;;;;;7.65;5.03;;;23.20;43.10;;;;;;5028177;28;45364;-59
2021/03/01 06:29:32;;;;;;;6.78;4.75;;;23.20;43.10;;;;;;5027739;28;45366;-59
2021/03/01 06:31:58;;;;;;;7.75;4.78;;;23.20;43.10;;;;;;5027958;28;45438;-63
2021/03/01 06:34:32;;;;;;;7.30;5.40;;;23.20;43.10;;;;;;5028418;28;45350;-59
2021/03/01 06:37:15;;;;;;;6.70;4.78;;;23.30;43.10;;;;;;5028658;28;45435;-59
2021/03/01 06:39:41;;;;;;;6.78;5.07;;;23.30;43.10;;;;;;5029449;28;45207;-61
2021/03/01 06:42:19;;;;;;;6.78;4.80;;;23.30;43.10;;;;;;5026853;28;45347;-59
2021/03/01 06:44:48;;;;;;;8.02;4.95;;;23.30;43.10;;;;;;5029330;28;45280;-59
2021/03/01 06:47:14;;;;;;;7.30;4.63;;;23.30;43.10;;;;;;5029146;28;45301;-59
2021/03/01 06:49:41;;;;;;;6.78;4.55;;;23.30;43.20;;;;;;5027121;28;45257;-60
2021/03/01 06:52:07;;;;;;;6.97;4.38;;;23.30;43.10;;;;;;5028058;28;45352;-59
2021/03/01 06:54:33;;;;;;;7.57;4.85;;;23.30;43.10;;;;;;5027884;28;46166;-59
2021/03/01 06:56:59;;;;;;;7.43;5.18;;;23.30;43.00;;;;;;5028343;28;45329;-59
2021/03/01 06:59:24;;;;;;;7.38;5.30;;;23.30;43.00;;;;;;5028302;28;45363;-59
2021/03/01 07:01:51;;;;;;;7.18;4.65;;;23.30;42.90;;;;;;5028132;28;45375;-66
2021/03/01 07:04:27;;;;;;;10.25;5.57;;;23.30;43.20;;;;;;5027713;28;45388;-63
2021/03/01 07:06:54;;;;;;;11.70;5.97;;;23.40;43.80;;;;;;5022053;28;45375;-62
2021/03/01 07:09:22;;;;;;;13.82;6.50;;;23.20;43.90;;;;;;5007362;28;45456;-63
2021/03/01 07:11:48;;;;;;;10.00;5.72;;;23.20;44.40;;;;;;5007942;28;45563;-63
2021/03/01 07:14:15;;;;;;;11.10;6.88;;;23.10;44.00;;;;;;5007228;28;45907;-62
2021/03/01 07:16:46;;;;;;;14.05;6.28;;;23.10;43.90;;;;;;5013104;28;45440;-62
2021/03/01 07:19:12;;;;;;;10.32;6.25;;;23.10;44.20;;;;;;5028521;28;45213;-62
2021/03/01 07:21:39;;;;;;;14.52;7.05;;;23.10;44.00;;;;;;5028125;28;45505;-62
2021/03/01 07:24:05;;;;;;;14.25;6.20;;;23.10;43.80;;;;;;5026894;28;46161;-62
2021/03/01 07:26:31;;;;;;;13.93;6.93;;;23.10;43.80;;;;;;5027317;28;45414;-62
2021/03/01 07:29:03;;;;;;;9.38;5.55;;;23.00;43.70;;;;;;5027515;28;45468;-60
2021/03/01 07:31:29;;;;;;;12.95;6.18;;;23.10;43.50;;;;;;5023721;28;45526;-61
2021/03/01 07:33:55;;;;;;;12.40;5.63;;;23.10;44.10;;;;;;5009341;28;45466;-61
2021/03/01 07:36:20;;;;;;;10.73;5.47;;;23.10;44.50;;;;;;5026110;28;45407;-58
2021/03/01 07:38:46;;;;;;;11.88;5.60;;;23.10;44.30;;;;;;5022634;28;45413;-56
2021/03/01 07:41:12;;;;;;;9.80;5.75;;;23.20;44.40;;;;;;5008592;28;45533;-56
2021/03/01 07:43:42;;;;;;;8.50;5.78;;;23.30;43.90;;;;;;5023996;28;46494;-56
2021/03/01 07:46:08;;;;;;;11.18;5.50;;;23.40;43.90;;;;;;5022841;28;45524;-64
2021/03/01 07:48:41;;;;;;;16.02;6.53;;;23.50;43.90;;;;;;5021330;28;45450;-64
2021/03/01 07:51:08;;;;;;;10.75;6.10;;;23.50;44.60;;;;;;5024447;28;45437;-65
2021/03/01 07:53:50;;;;;;;18.17;6.45;;;23.40;44.40;;;;;;5021524;28;46104;-65
2021/03/01 07:56:25;;;;;;;12.50;6.20;;;23.40;44.20;;;;;;5021933;28;45449;-65
2021/03/01 07:58:58;;;;;;;11.85;7.20;;;23.40;44.50;;;;;;5025397;28;45345;-65
2021/03/01 08:01:24;;;;;;;10.25;6.00;;;23.40;44.20;;;;;;5008259;28;45344;-65
2021/03/01 08:03:50;;;;;;;12.25;6.72;;;23.40;44.40;;;;;;5023401;28;45376;-65
2021/03/01 08:06:16;;;;;;;10.75;6.68;;;23.40;44.60;;;;;;5007624;28;45481;-65
2021/03/01 08:08:49;;;;;;;11.85;6.38;;;23.50;44.50;;;;;;5007075;28;45431;-65
2021/03/01 08:11:36;;;;;;;13.82;7.15;;;23.50;44.10;;;;;;5024445;28;45533;-65
2021/03/01 08:14:02;;;;;;;17.63;7.13;;;23.50;44.10;;;;;;5016133;28;46088;-65
2021/03/01 08:16:28;;;;;;;12.48;7.40;;;23.40;43.80;;;;;;5004006;28;46644;-65
2021/03/01 08:18:55;;;;;;;12.80;7.07;;;23.50;44.00;;;;;;5021308;28;46024;-65
2021/03/01 08:21:20;;;;;;;12.10;6.55;;;23.50;43.60;;;;;;5020961;28;45761;-64
2021/03/01 08:23:47;;;;;;;10.52;6.57;;;23.40;43.60;;;;;;5022414;28;46267;-65
2021/03/01 08:26:35;;;;;;;12.68;6.63;;;23.50;43.50;;;;;;5022929;28;45494;-65
2021/03/01 08:29:15;;;;;;;11.98;6.50;;;23.50;43.20;;;;;;5023005;28;45356;-64
2021/03/01 08:31:40;;;;;;;12.25;6.63;;;23.50;43.00;;;;;;5024242;28;45648;-65
2021/03/01 08:34:26;;;;;;;10.82;7.00;;;23.50;43.10;;;;;;5020048;28;45808;-64
2021/03/01 08:36:52;;;;;;;10.23;7.30;;;23.50;42.10;;;;;;5020781;28;45472;-64
2021/03/01 08:39:59;;;;;;;11.93;6.93;;;23.50;42.60;;;;;;5021943;28;45844;-64
2021/03/01 08:42:45;;;;;;;10.23;7.30;;;23.50;41.80;;;;;;5021955;28;45574;-64
2021/03/01 08:45:11;;;;;;;14.00;7.13;;;23.40;41.70;;;;;;5021447;28;45269;-64
2021/03/01 08:48:24;;;;;;;10.32;6.55;;;23.40;42.10;;;;;;5021417;28;45510;-65
2021/03/01 08:50:51;;;;;;;10.55;6.30;;;23.40;41.70;;;;;;5022046;28;45526;-64
2021/03/01 08:53:27;;;;;;;11.25;7.22;;;23.40;42.20;;;;;;5021562;28;45616;-64
2021/03/01 08:55:56;;;;;;;11.48;7.47;;;23.40;42.00;;;;;;5021014;28;45475;-64
2021/03/01 08:58:22;;;;;;;14.27;7.20;;;23.40;42.20;;;;;;5021039;28;45499;-64
2021/03/01 09:00:52;;;;;;;10.05;5.90;;;23.30;42.20;;;;;;5020550;28;45582;-65
2021/03/01 09:03:28;;;;;;;10.35;7.00;;;23.40;42.40;;;;;;5020817;28;46610;-65
2021/03/01 09:06:13;;;;;;;11.75;7.22;;;23.40;42.50;;;;;;5021189;28;46104;-64
2021/03/01 09:08:40;;;;;;;9.75;6.03;;;23.40;42.30;;;;;;5004924;28;45557;-65
2021/03/01 09:11:16;;;;;;;9.85;6.15;;;23.40;42.40;;;;;;5022720;28;45795;-65
2021/03/01 09:13:42;;;;;;;9.48;6.20;;;23.40;42.20;;;;;;5022951;28;45757;-64
2021/03/01 09:16:15;;;;;;;9.40;5.55;;;23.40;42.40;;;;;;5023155;28;46480;-64
2021/03/01 09:18:42;;;;;;;10.90;6.20;;;23.40;42.50;;;;;;5022313;28;45717;-64
2021/03/01 09:21:08;;;;;;;10.05;6.20;;;23.50;42.80;;;;;;5021637;28;45540;-65
2021/03/01 09:23:46;;;;;;;9.10;6.53;;;23.50;42.90;;;;;;5023976;28;45742;-65
2021/03/01 09:26:22;;;;;;;10.82;6.03;;;23.50;42.80;;;;;;5024380;28;46336;-65
2021/03/01 09:28:48;;;;;;;8.85;6.13;;;23.50;42.80;;;;;;5023686;28;45386;-64
2021/03/01 09:31:14;;;;;;;9.18;5.68;;;23.50;42.80;;;;;;5023650;28;45539;-65
2021/03/01 09:33:40;;;;;;;10.35;6.15;;;23.50;42.80;;;;;;5022546;28;45676;-65
2021/03/01 09:36:06;;;;;;;10.38;6.20;;;23.60;42.90;;;;;;5022523;28;45515;-65
2021/03/01 09:38:32;;;;;;;12.45;6.20;;;23.50;43.10;;;;;;5006458;28;45579;-65
2021/03/01 09:41:07;;;;;;;9.38;5.75;;;23.50;43.10;;;;;;5006485;28;45535;-65
2021/03/01 09:43:33;;;;;;;9.10;5.45;;;23.60;43.10;;;;;;5023091;28;45310;-65
2021/03/01 09:46:00;;;;;;;9.25;5.10;;;23.50;43.20;;;;;;5006476;28;45400;-65
2021/03/01 09:48:27;;;;;;;9.52;5.22;;;23.50;43.10;;;;;;5025098;28;45686;-65
2021/03/01 09:50:53;;;;;;;9.07;5.05;;;23.50;43.10;;;;;;5009907;28;45663;-65
2021/03/01 09:53:19;;;;;;;10.80;6.28;;;23.50;43.80;;;;;;5026658;28;45471;-65
2021/03/01 09:55:45;;;;;;;7.57;5.00;;;23.50;43.40;;;;;;5023363;28;45597;-65
2021/03/01 09:58:40;;;;;;;10.45;5.32;;;23.50;43.50;;;;;;5025800;28;45529;-65
2021/03/01 10:01:16;;;;;;;8.57;5.15;;;23.50;43.30;;;;;;5021166;28;45482;-65
2021/03/01 10:03:49;;;;;;;12.05;5.72;;;23.50;43.70;;;;;;5025857;28;45943;-65
2021/03/01 10:06:28;;;;;;;9.05;5.50;;;23.50;43.60;;;;;;5024001;28;46430;-65
2021/03/01 10:09:07;;;;;;;13.43;5.95;;;23.50;43.70;;;;;;5025078;28;45713;-65
2021/03/01 10:11:32;;;;;;;8.50;5.65;;;23.50;43.80;;;;;;5026511;28;45458;-65
2021/03/01 10:14:09;;;;;;;10.60;5.47;;;23.50;43.70;;;;;;5026696;28;45292;-65
2021/03/01 10:16:36;;;;;;;11.93;6.13;;;23.50;43.70;;;;;;5025055;28;46027;-66
2021/03/01 10:19:11;;;;;;;8.82;5.70;;;23.50;43.60;;;;;;5025794;28;45430;-65
2021/03/01 10:21:36;;;;;;;;;;;23.50;43.60;;;;;;5026343;28;45633;-64
2021/03/01 10:24:06;;;;;;;8.15;5.63;;;23.40;43.50;;;;;;5025841;28;45364;-65
2021/03/01 10:26:31;;;;;;;11.85;6.10;;;23.40;43.70;;;;;;5026414;28;45450;-65
2021/03/01 10:29:00;;;;;;;8.38;5.72;;;23.40;43.50;;;;;;5025547;28;45471;-65
2021/03/01 10:31:33;;;;;;;9.23;5.90;;;23.40;43.50;;;;;;5025880;28;45430;-64
2021/03/01 10:34:02;;;;;;;9.15;5.00;;;23.50;43.50;;;;;;5025746;28;45475;-65
2021/03/01 10:36:51;;;;;;;8.90;5.47;;;23.40;43.40;;;;;;5027066;28;46345;-65
2021/03/01 10:39:19;;;;;;;6.88;4.63;;;23.40;43.40;;;;;;5026087;28;45487;-64
2021/03/01 10:41:53;;;;;;;8.07;5.07;;;23.40;43.50;;;;;;5025770;28;45806;-65
2021/03/01 10:44:35;;;;;;;8.88;5.93;;;23.40;43.50;;;;;;5025017;28;45669;-65
2021/03/01 10:47:14;;;;;;;8.05;5.20;;;23.40;43.50;;;;;;5027109;28;45763;-65
2021/03/01 10:49:40;;;;;;;7.53;4.72;;;23.50;43.40;;;;;;5026527;28;45424;-65
2021/03/01 10:52:07;;;;;;;11.23;5.72;;;23.50;43.40;;;;;;5026684;28;45376;-65
2021/03/01 10:54:33;;;;;;;11.27;5.75;;;23.50;43.20;;;;;;5026970;28;45515;-65
2021/03/01 10:56:59;;;;;;;7.15;4.47;;;23.60;43.10;;;;;;5025521;28;45428;-65
2021/03/01 10:59:24;;;;;;;8.52;4.97;;;23.60;43.10;;;;;;5025272;28;45440;-65
2021/03/01 11:01:50;;;;;;;8.80;5.07;;;23.60;43.00;;;;;;5024111;28;45737;-65
2021/03/01 11:04:16;;;;;;;7.53;4.70;;;23.60;43.10;;;;;;5025705;28;45285;-65
2021/03/01 11:06:42;;;;;;;8.50;5.22;;;23.60;43.10;;;;;;5025123;28;45399;-65
2021/03/01 11:09:09;;;;;;;7.65;4.97;;;23.60;43.10;;;;;;5023391;28;45313;-65
2021/03/01 11:11:35;;;;;;;8.88;5.47;;;23.60;43.20;;;;;;5024919;28;45437;-65
2021/03/01 11:14:01;;;;;;;7.55;4.70;;;23.60;43.30;;;;;;5025566;28;45562;-65
2021/03/01 11:16:27;;;;;;;7.60;5.25;;;23.50;43.30;;;;;;5023933;28;45837;-65
2021/03/01 11:18:52;;;;;;;9.15;5.75;;;23.50;43.30;;;;;;5024034;28;45760;-64
2021/03/01 11:21:18;;;;;;;8.88;4.50;;;23.50;43.40;;;;;;5024581;28;45734;-65
2021/03/01 11:23:44;;;;;;;6.72;5.00;;;23.50;43.50;;;;;;5019423;28;45644;-65
2021/03/01 11:26:10;;;;;;;9.05;5.55;;;23.50;43.50;;;;;;5005362;28;46259;-66
2021/03/01 11:28:35;;;;;;;13.82;5.65;;;23.50;43.70;;;;;;5024276;28;45657;-66
2021/03/01 11:31:01;;;;;;;8.60;4.68;;;23.40;43.50;;;;;;5024247;28;45351;-66
2021/03/01 11:33:27;;;;;;;7.07;4.90;;;23.40;43.60;;;;;;5025379;28;45326;-66
2021/03/01 11:35:54;;;;;;;8.02;4.88;;;23.40;43.60;;;;;;5023014;28;45674;-66
2021/03/01 11:38:21;;;;;;;9.23;5.00;;;23.40;43.60;;;;;;5022962;28;45526;-65
2021/03/01 11:40:48;;;;;;;8.50;4.90;;;23.40;43.50;;;;;;5020732;28;45593;-66
2021/03/01 11:43:13;;;;;;;6.47;4.63;;;23.30;43.40;;;;;;5021252;28;45552;-66
2021/03/01 11:45:39;;;;;;;8.32;5.78;;;23.30;43.40;;;;;;5021298;28;45490;-66
2021/03/01 11:48:05;;;;;;;13.07;5.25;;;23.30;43.50;;;;;;5022431;28;45249;-66
2021/03/01 11:50:31;;;;;;;8.95;5.18;;;23.20;43.40;;;;;;5023112;28;46005;-66
2021/03/01 11:52:57;;;;;;;7.63;4.95;;;23.20;43.60;;;;;;5020330;28;45412;-65
2021/03/01 11:55:22;;;;;;;9.80;4.88;;;23.20;43.70;;;;;;5021763;28;46293;-64
2021/03/01 11:57:48;;;;;;;6.82;5.00;;;23.20;44.00;;;;;;5018654;28;45540;-65
2021/03/01 12:00:16;;;;;;;8.27;5.05;;;23.40;43.90;;;;;;5022529;28;46663;-65
2021/03/01 12:02:42;;;;;;;8.45;4.40;;;23.50;43.70;;;;;;5024033;28;45475;-64
2021/03/01 12:05:09;;;;;;;7.65;4.97;;;23.50;43.40;;;;;;5022373;28;46022;-62
2021/03/01 12:07:35;;;;;;;6.95;5.07;;;23.50;43.30;;;;;;5021863;28;45580;-62
2021/03/01 12:10:02;;;;;;;6.72;4.78;;;23.60;43.20;;;;;;5023087;28;45555;-64
2021/03/01 12:12:27;;;;;;;7.95;4.57;;;23.60;43.10;;;;;;5022829;28;45962;-64
2021/03/01 12:14:53;;;;;;;9.23;4.43;;;23.60;43.20;;;;;;5018598;28;46118;-64
2021/03/01 12:17:20;;;;;;;5.97;4.30;;;23.60;43.10;;;;;;5021785;28;46405;-61
2021/03/01 12:19:46;;;;;;;7.10;4.30;;;23.70;43.10;;;;;;5022631;28;45482;-61
2021/03/01 12:22:11;;;;;;;7.35;4.40;;;23.70;43.10;;;;;;5024552;28;45686;-64
2021/03/01 12:24:37;;;;;;;7.10;4.30;;;23.70;43.00;;;;;;5023699;28;46320;-62
2021/03/01 12:27:03;;;;;;;8.73;4.32;;;23.60;43.40;;;;;;5006451;28;45557;-65
2021/03/01 12:29:28;;;;;;;7.50;4.40;;;23.60;43.40;;;;;;5024191;28;45507;-65
2021/03/01 12:31:54;;;;;;;7.53;4.80;;;23.60;43.50;;;;;;5001800;28;45454;-64
2021/03/01 12:34:20;;;;;;;8.13;4.00;;;23.70;43.50;;;;;;5023491;28;46155;-66
2021/03/01 12:36:46;;;;;;;5.82;3.80;;;23.70;43.30;;;;;;5004040;28;45816;-66
2021/03/01 12:39:11;;;;;;;7.47;4.47;;;23.70;43.20;;;;;;5024337;28;45495;-65
2021/03/01 12:41:37;;;;;;;6.45;4.38;;;23.70;43.10;;;;;;5005139;28;46634;-63
2021/03/01 12:44:03;;;;;;;5.05;3.55;;;23.80;43.10;;;;;;5015225;28;45304;-64